WetterOnline ( http://www.wetteronline.de )

Wetter aktuell Kassel

Aktuelles Wetter: Schauenburg-Elgershausen (317m)

6-stündlich | Neueste Meldungen
Ortszeit Temperatur Wetter
Do, 21.03. 19:00 10.0° C wolkig
Do, 21.03. 13:00 13.4° C wolkenlos
Do, 21.03. 7:00 1.5° C wolkig
Do, 21.03. 1:00 5.0° C wolkig
Mi, 20.03. 19:00 9.9° C bedeckt
Mi, 20.03. 13:00 10.0° C leicht bewölkt
Mi, 20.03. 7:00 -1.8° C wolkenlos
Mi, 20.03. 1:00 -0.8° C wolkenlos
Ortszeit Temperatur Wetter
Do, 21.03. 20:30 9.6° C wolkenlos
Do, 21.03. 20:20 9.6° C wolkenlos
Do, 21.03. 20:10 9.2° C fast wolkenlos
Do, 21.03. 20:00 8.7° C leicht bewölkt
Do, 21.03. 19:50 8.7° C leicht bewölkt
Do, 21.03. 19:40 10.5° C leicht bewölkt
Do, 21.03. 19:30 9.9° C wolkig
Do, 21.03. 19:00 10.0° C wolkig
Do, 21.03. 18:30 13.2° C wolkenlos
Do, 21.03. 18:00 14.5° C fast wolkenlos
Do, 21.03. 17:30 14.3° C wolkenlos
Ortszeit Relative Feuchte Sichtweite
Do, 21.03. 19:00 69% 40 km
Do, 21.03. 13:00 47% 45 km
Do, 21.03. 7:00 88% 26 km
Do, 21.03. 1:00 84% 27 km
Mi, 20.03. 19:00 65% 40 km
Mi, 20.03. 13:00 53% 35 km
Mi, 20.03. 7:00 88% 25 km
Mi, 20.03. 1:00 85% 35 km
Ortszeit Relative Feuchte Sichtweite
Do, 21.03. 20:30 72% 35 km
Do, 21.03. 20:20 72% -
Do, 21.03. 20:10 74% -
Do, 21.03. 20:00 73% 28 km
Do, 21.03. 19:50 73% -
Do, 21.03. 19:40 66% -
Do, 21.03. 19:30 70% 35 km
Do, 21.03. 19:00 69% 40 km
Do, 21.03. 18:30 53% 40 km
Do, 21.03. 18:00 48% 40 km
Do, 21.03. 17:30 51% 40 km
Ortszeit Niederschlagsmenge Niederschlagsart
Do, 21.03. 19:00 0.0 l/m2 in 12 Std. -
Do, 21.03. 13:00 0.0 l/m2 in 6 Std. -
Do, 21.03. 7:00 0.0 l/m2 in 12 Std. -
Do, 21.03. 1:00 0.0 l/m2 in 6 Std. -
Mi, 20.03. 19:00 0.0 l/m2 in 12 Std. -
Mi, 20.03. 13:00 0.0 l/m2 in 6 Std. -
Mi, 20.03. 7:00 0.0 l/m2 in 12 Std. -
Mi, 20.03. 1:00 0.0 l/m2 in 6 Std. -
Ortszeit Niederschlagsmenge Niederschlagsart
Do, 21.03. 20:30 0.0 l/m2 in 1 Std. -
Do, 21.03. 20:20 keine Meldung -
Do, 21.03. 20:10 keine Meldung -
Do, 21.03. 20:00 0.0 l/m2 in 1 Std. -
Do, 21.03. 19:50 keine Meldung -
Do, 21.03. 19:40 keine Meldung -
Do, 21.03. 19:30 0.0 l/m2 in 1 Std. -
Do, 21.03. 19:00 0.0 l/m2 in 1 Std. -
Do, 21.03. 18:30 0.0 l/m2 in 1 Std. -
Do, 21.03. 18:00 0.0 l/m2 in 1 Std. -
Do, 21.03. 17:30 0.0 l/m2 in 1 Std. -
Ortszeit Stärke Spitze Richtung
km/h Bft. km/h Grad Sektor
Do, 21.03. 19:00 6 1 17 10° N
Do, 21.03. 13:00 9 2 17 140° SO
Do, 21.03. 7:00 4 1 7 280° W
Do, 21.03. 1:00 6 1 9 340° N
Mi, 20.03. 19:00 6 1 20 330° NW
Mi, 20.03. 13:00 14 3 25 230° SW
Mi, 20.03. 7:00 4 1 7 190° S
Mi, 20.03. 1:00 7 2 11 340° N
Ortszeit Stärke Spitze Richtung
km/h Bft. km/h Grad Sektor
Do, 21.03. 20:30 4 1 7 330° NW
Do, 21.03. 20:20 4 1 - 330° NW
Do, 21.03. 20:10 4 1 - 360° N
Do, 21.03. 20:00 4 1 11 360° N
Do, 21.03. 19:50 4 1 - 360° N
Do, 21.03. 19:40 4 1 - 320° NW
Do, 21.03. 19:30 6 1 9 330° NW
Do, 21.03. 19:00 6 1 7 10° N
Do, 21.03. 18:30 2 1 6 360° N
Do, 21.03. 18:00 4 1 11 220° SW
Do, 21.03. 17:30 7 2 11 170° S
Ortszeit Untergrenze Bedeckung Gattung
total tief tief mittel hoch
Do, 21.03. 19:00 9000 m 7/8 0/8 - - -
Do, 21.03. 13:00 - 0/8 0/8 - - -
Do, 21.03. 7:00 6900 m 8/8 1/8 - - -
Do, 21.03. 1:00 7500 m 8/8 0/8 - - -
Mi, 20.03. 19:00 1380 m 8/8 8/8 - - -
Mi, 20.03. 13:00 9000 m 7/8 0/8 - - -
Mi, 20.03. 7:00 - 0/8 0/8 - - -
Mi, 20.03. 1:00 - 0/8 0/8 - - -
Ortszeit Bedeckungsgrad in Achtel und Wolkenuntergrenze
Do, 21.03. 20:30 keine Wolken
Do, 21.03. 20:20 keine Wolken
Do, 21.03. 20:10 1(9000m)
Do, 21.03. 20:00 3(9000m)
Do, 21.03. 19:50 3(9000m)
Do, 21.03. 19:40 3(9000m) 3(10500m)
Do, 21.03. 19:30 7(9000m) 8(9000m) 8(10500m)
Do, 21.03. 19:00 5(9000m) 7(9000m)
Do, 21.03. 18:30 2(9000m)
Do, 21.03. 18:00 1(12000m)
Do, 21.03. 17:30 keine Wolken
Ortszeit Luftdruck NN (hPa) Tendenz (hPa in 3 Std.)
Do, 21.03. 19:00 1033 - 0,3
Do, 21.03. 13:00 1034 - 0,9
Do, 21.03. 7:00 1036 + 0,3
Do, 21.03. 1:00 1036 + 0,2
Mi, 20.03. 19:00 1034 + 0,5
Mi, 20.03. 13:00 1034 - 0,1
Mi, 20.03. 7:00 1035 + 0,7
Mi, 20.03. 1:00 1034 + 0,6
Ortszeit Luftdruck NN (hPa) Tendenz (hPa in 3 Std.)
Do, 21.03. 20:30 1033 + 0,5
Do, 21.03. 20:20 1033 keine Meldung
Do, 21.03. 20:10 1034 keine Meldung
Do, 21.03. 20:00 1033 + 0,5
Do, 21.03. 19:50 1033 keine Meldung
Do, 21.03. 19:40 1033 keine Meldung
Do, 21.03. 19:30 1033 + 0,1
Do, 21.03. 19:00 1033 - 0,3
Do, 21.03. 18:30 1032 - 0,5
Do, 21.03. 18:00 1032 - 0,8
Do, 21.03. 17:30 1032 - 1,1
Ortszeit Schneehöhe (cm)
Do, 21.03. 19:00 0
Do, 21.03. 13:00 0
Do, 21.03. 7:00 0
Do, 21.03. 1:00 0
Mi, 20.03. 19:00 0
Mi, 20.03. 13:00 0
Mi, 20.03. 7:00 0
Mi, 20.03. 1:00 0
Ortszeit Schneehöhe (cm)
Do, 21.03. 20:30 0
Do, 21.03. 20:20 0
Do, 21.03. 20:10 0
Do, 21.03. 20:00 0
Do, 21.03. 19:50 0
Do, 21.03. 19:40 0
Do, 21.03. 19:30 0
Do, 21.03. 19:00 0
Do, 21.03. 18:30 0
Do, 21.03. 18:00 0
Do, 21.03. 17:30 0
Link zu dieser Seite / Seite empfehlen

Das Wetter in ...